Warfordsburg, Pennsylvania
Current Conditions -  °F | °C
As of 7:53 PM on Monday 20 Oct 2014 (Local Time) from KHGR Reporting Station
Light Rain Light Rain  
Wind Chill: 56°   Ceiling: 7500
Heat Index: 56°   Visibility: 10mi
Dew Point: 45°   Wind: 6mph
Humidity: 67%   Direction: 180°S
Pressure: 29.95"   Gusts: NA
Location:  39.75°N, 78.19°W
Report Text: KHGR 202353Z 18005KT 10SM -RA FEW055 OVC075 13/07 A2995 RMK AO2 RAB50 SLP153 P0000 60000 T01330072 10161 20133 53002
Loading
Personal Weather Stations






























Interactive Weather Map
Tropical Storm Tracking
New forecast layout! Learn more

10-Day Weather Forecast

Advertisements
Track Severe Weather on mobile